PGUM/GUM METAR and TAF weather

Enter ICAO airport designator
Station Type Date Time Source
PGUM METAR 2019/08/23 14:54 UTC NOAA

PGUM 231454Z 08009KT 10SM CLR 26/24 A2983 RMK AO2 RAB10E26 SLP092 P0013 60033 T02610239 58012


Station Type Date Time Source
PGUM Decoded METAR 2019/08/23 14:54 UTC NOAA

Station name not available
Aug 23, 2019 - 10:54 AM EDT / 2019.08.23 1454 UTC
Wind: from the E (080 degrees) at 10 MPH (9 KT):0
Visibility: 10 mile(s):0
Sky conditions: clear
Precipitation last hour: 0.13 inches
Temperature: 79.0 F (26.1 C)
Dew Point: 75.0 F (23.9 C)
Relative Humidity: 87%
Pressure (altimeter): 29.83 in. Hg (1010 hPa)
Pressure tendency: 0.04 inches (1.2 hPa) lower than three hours ago
ob: PGUM 231454Z 08009KT 10SM CLR 26/24 A2983 RMK AO2 RAB10E26 SLP092 P0013 60033 T02610239 58012
cycle: 15

Station Type Date Time Source
PGUM TAF 2019/08/23 13:45 UTC NOAA

TAF
AMD PGUM 231328Z 2313/2418 06011KT P6SM VCSH FEW018 SCT040 BKN120
TEMPO 2313/2314 05015G25KT 3SM +SHRA SCT016 BKN025 OVC100

Example: see airport list